Time;durP1;ratioP1;P1;durP2;ratioP2;P2;SDS_P1;SDS_P2;PMS_P1;PMS_P2;Temp;Humidity;BMP_temperature;BMP_pressure;BME280_temperature;BME280_humidity;BME280_pressure;Samples;Min_cycle;Max_cycle;Signal;HPM_P1;HPM_P2
2021/07/29 00:00:37;;;;;;;4.43;3.80;;;20.40;79.40;;;;;;5057025;28;20199;-90
2021/07/29 00:03:04;;;;;;;3.70;3.40;;;20.30;79.50;;;;;;5037813;28;20192;-90
2021/07/29 00:05:32;;;;;;;5.22;3.58;;;20.30;80.10;;;;;;5058752;28;20198;-90
2021/07/29 00:07:58;;;;;;;5.65;3.90;;;20.30;79.90;;;;;;5057642;28;20307;-90
2021/07/29 00:10:24;;;;;;;4.35;4.05;;;20.30;79.70;;;;;;5055134;28;20720;-91
2021/07/29 00:12:50;;;;;;;3.70;3.38;;;20.40;79.80;;;;;;5057484;28;20194;-90
2021/07/29 00:15:16;;;;;;;3.90;3.60;;;20.30;80.10;;;;;;5053135;28;20188;-90
2021/07/29 00:20:13;;;;;;;4.30;3.90;;;20.40;79.70;;;;;;5057277;28;20180;-90
2021/07/29 00:22:40;;;;;;;4.00;3.55;;;20.30;79.90;;;;;;5048480;28;20963;-91
2021/07/29 00:25:07;;;;;;;3.83;3.53;;;20.20;80.60;;;;;;5057865;28;20190;-90
2021/07/29 00:27:36;;;;;;;4.60;3.40;;;20.30;80.40;;;;;;5055738;28;20207;-90
2021/07/29 00:30:06;;;;;;;4.03;3.63;;;20.30;80.60;;;;;;5040192;28;20225;-91
2021/07/29 00:32:32;;;;;;;4.10;3.80;;;20.30;80.40;;;;;;5059167;28;20184;-90
2021/07/29 00:34:57;;;;;;;3.80;3.50;;;20.30;80.30;;;;;;5059179;28;20250;-88
2021/07/29 00:37:23;;;;;;;5.03;3.85;;;20.20;80.50;;;;;;5056317;28;20219;-91
2021/07/29 00:39:49;;;;;;;4.93;3.55;;;20.10;81.00;;;;;;5059514;28;20229;-90
2021/07/29 00:42:15;;;;;;;3.88;3.53;;;20.10;81.50;;;;;;5059337;28;20658;-91
2021/07/29 00:44:41;;;;;;;5.00;3.70;;;20.00;81.50;;;;;;5038721;28;20192;-88
2021/07/29 00:47:07;;;;;;;3.40;3.20;;;19.90;81.80;;;;;;5026229;28;20230;-88
2021/07/29 00:49:36;;;;;;;4.88;3.85;;;19.80;82.30;;;;;;5060058;28;20204;-88
2021/07/29 00:52:03;;;;;;;6.07;3.80;;;19.90;82.30;;;;;;5058408;28;20224;-89
2021/07/29 00:54:29;;;;;;;4.30;3.53;;;20.00;81.80;;;;;;5055374;28;20270;-89
2021/07/29 00:57:01;;;;;;;4.65;3.22;;;20.00;81.70;;;;;;5057022;28;20217;-90
2021/07/29 00:59:27;;;;;;;4.10;3.70;;;20.00;81.40;;;;;;5057756;28;20288;-89
2021/07/29 01:01:53;;;;;;;4.93;3.95;;;20.00;80.70;;;;;;5056901;28;20199;-89
2021/07/29 01:04:18;;;;;;;7.63;4.57;;;20.00;80.70;;;;;;5023968;28;20199;-89
2021/07/29 01:06:45;;;;;;;3.80;3.00;;;20.10;81.10;;;;;;5042408;28;20260;-89
2021/07/29 01:09:11;;;;;;;4.82;4.00;;;20.00;81.70;;;;;;5054591;28;20200;-89
2021/07/29 01:11:39;;;;;;;4.03;3.72;;;20.00;81.10;;;;;;5038093;28;20210;-89
2021/07/29 01:14:05;;;;;;;6.53;4.30;;;20.00;81.90;;;;;;5057093;28;20187;-89
2021/07/29 01:16:32;;;;;;;5.28;3.35;;;20.00;81.90;;;;;;5058458;28;20274;-89
2021/07/29 01:18:59;;;;;;;5.55;3.80;;;20.00;81.60;;;;;;5053287;28;20211;-89
2021/07/29 01:21:30;;;;;;;3.88;3.53;;;20.10;81.40;;;;;;5034189;28;20255;-89
2021/07/29 01:23:56;;;;;;;3.70;3.40;;;20.00;81.00;;;;;;5057912;28;20188;-89
2021/07/29 01:26:23;;;;;;;3.70;3.40;;;20.00;81.10;;;;;;5056438;28;20559;-89
2021/07/29 01:28:49;;;;;;;3.83;3.42;;;19.90;81.50;;;;;;5055035;28;20219;-89
2021/07/29 01:31:15;;;;;;;7.63;3.63;;;19.90;81.80;;;;;;5056270;28;20218;-89
2021/07/29 01:33:41;;;;;;;4.35;3.90;;;20.00;81.70;;;;;;5043178;28;20190;-89
2021/07/29 01:36:07;;;;;;;3.63;3.30;;;20.00;81.40;;;;;;5051264;28;20190;-89
2021/07/29 01:38:32;;;;;;;4.18;3.00;;;20.00;81.10;;;;;;5055691;28;20222;-89
2021/07/29 01:40:58;;;;;;;3.80;3.47;;;20.00;81.00;;;;;;5039705;28;20229;-90
2021/07/29 01:43:25;;;;;;;5.35;3.63;;;20.00;81.20;;;;;;5056635;28;20202;-90
2021/07/29 01:45:50;;;;;;;4.00;3.70;;;20.00;81.00;;;;;;5056663;28;20199;-89
2021/07/29 01:48:16;;;;;;;3.42;3.13;;;20.00;81.20;;;;;;5058203;28;20211;-89
2021/07/29 01:50:44;;;;;;;5.53;3.65;;;20.00;80.70;;;;;;5056382;28;20184;-90
2021/07/29 01:53:10;;;;;;;3.83;3.50;;;20.00;80.70;;;;;;5053025;28;20572;-89
2021/07/29 01:55:43;;;;;;;3.85;3.50;;;20.00;80.60;;;;;;5044050;28;20199;-89
2021/07/29 01:58:09;;;;;;;4.32;3.85;;;19.90;81.10;;;;;;5053747;28;20192;-89
2021/07/29 02:00:36;;;;;;;6.00;4.07;;;19.80;81.00;;;;;;5051290;28;20236;-90
2021/07/29 02:03:03;;;;;;;3.60;3.38;;;19.80;80.70;;;;;;5053785;28;20202;-89
2021/07/29 02:05:29;;;;;;;3.72;3.42;;;19.80;81.10;;;;;;5057466;28;20188;-90
2021/07/29 02:07:55;;;;;;;4.45;3.70;;;19.80;80.60;;;;;;5053586;28;20275;-89
2021/07/29 02:10:21;;;;;;;4.38;3.25;;;19.80;80.60;;;;;;5056139;28;20650;-89
2021/07/29 02:12:47;;;;;;;3.25;3.05;;;19.70;81.70;;;;;;5055822;28;20189;-89
2021/07/29 02:15:13;;;;;;;5.05;3.63;;;19.70;81.60;;;;;;5038078;28;20218;-89
2021/07/29 02:17:39;;;;;;;3.65;3.35;;;19.70;80.80;;;;;;5064248;28;20213;-90
2021/07/29 02:20:06;;;;;;;3.85;3.55;;;19.60;82.30;;;;;;5042902;28;20230;-90
2021/07/29 02:22:31;;;;;;;5.28;3.65;;;19.60;81.90;;;;;;5073148;28;20198;-90
2021/07/29 02:24:57;;;;;;;3.72;3.40;;;19.60;81.60;;;;;;5056167;28;20203;-89
2021/07/29 02:27:24;;;;;;;4.57;3.42;;;19.70;81.40;;;;;;5056166;28;20270;-89
2021/07/29 02:29:53;;;;;;;3.72;3.42;;;19.80;81.20;;;;;;5044418;28;20208;-89
2021/07/29 02:32:22;;;;;;;4.40;3.70;;;19.80;81.00;;;;;;5035877;28;20210;-89
2021/07/29 02:34:48;;;;;;;3.90;3.60;;;19.80;81.30;;;;;;5046606;28;20263;-89
2021/07/29 02:37:14;;;;;;;3.63;3.33;;;19.70;81.40;;;;;;5060532;28;20285;-89
2021/07/29 02:39:40;;;;;;;4.28;3.60;;;19.80;81.30;;;;;;5047226;28;20198;-89
2021/07/29 02:42:09;;;;;;;3.70;3.40;;;19.80;80.90;;;;;;5033997;28;20241;-90
2021/07/29 02:44:36;;;;;;;4.72;3.65;;;19.80;81.10;;;;;;5045804;28;20191;-89
2021/07/29 02:47:02;;;;;;;4.85;3.83;;;19.80;80.60;;;;;;5042975;28;20254;-89
2021/07/29 02:49:28;;;;;;;3.75;3.45;;;19.60;80.70;;;;;;5056510;28;20215;-89
2021/07/29 02:51:54;;;;;;;3.92;3.63;;;19.60;81.30;;;;;;5050112;28;20191;-90
2021/07/29 02:54:20;;;;;;;5.75;3.83;;;19.70;81.20;;;;;;5060938;28;20185;-89
2021/07/29 02:56:46;;;;;;;4.20;3.80;;;19.70;80.60;;;;;;5058989;28;20282;-89
2021/07/29 02:59:12;;;;;;;4.65;3.97;;;19.70;80.80;;;;;;5056203;28;20301;-89
2021/07/29 03:01:37;;;;;;;6.30;4.03;;;19.70;81.10;;;;;;5058517;28;20676;-89
2021/07/29 03:04:03;;;;;;;5.75;3.72;;;19.80;80.60;;;;;;5057186;28;20203;-90
2021/07/29 03:06:29;;;;;;;4.60;3.97;;;19.80;80.50;;;;;;5058991;28;20198;-89
2021/07/29 03:08:55;;;;;;;4.35;3.63;;;19.80;80.90;;;;;;5059199;28;20298;-90
2021/07/29 03:11:21;;;;;;;4.32;3.92;;;19.60;81.10;;;;;;5058697;28;20187;-89
2021/07/29 03:13:47;;;;;;;4.85;4.35;;;19.40;82.50;;;;;;5056958;28;20278;-89
2021/07/29 03:16:12;;;;;;;4.45;4.05;;;19.10;83.50;;;;;;5058341;28;20191;-89
2021/07/29 03:18:38;;;;;;;4.65;4.28;;;19.10;84.00;;;;;;5044939;28;20234;-89
2021/07/29 03:21:07;;;;;;;4.60;4.20;;;19.10;83.80;;;;;;5048578;28;20204;-89
2021/07/29 03:23:34;;;;;;;5.85;3.90;;;19.00;84.50;;;;;;5049069;28;20610;-89
2021/07/29 03:25:59;;;;;;;5.40;4.30;;;19.00;84.40;;;;;;5043793;28;20223;-90
2021/07/29 03:28:25;;;;;;;6.43;4.45;;;18.90;85.10;;;;;;5060291;28;20243;-89
2021/07/29 03:30:55;;;;;;;6.43;3.78;;;18.90;85.50;;;;;;5054407;28;20195;-89
2021/07/29 03:33:21;;;;;;;4.35;4.05;;;19.10;84.70;;;;;;5045193;28;20196;-89
2021/07/29 03:35:47;;;;;;;4.63;4.22;;;19.20;84.00;;;;;;5036171;28;20189;-90
2021/07/29 03:38:13;;;;;;;4.97;4.47;;;19.30;84.50;;;;;;5052195;28;20231;-90
2021/07/29 03:40:40;;;;;;;5.68;4.22;;;19.40;83.80;;;;;;5057434;28;20181;-89
2021/07/29 03:43:07;;;;;;;5.65;4.05;;;19.40;83.30;;;;;;5060693;28;20184;-89
2021/07/29 03:45:34;;;;;;;4.63;4.22;;;19.40;83.40;;;;;;5047660;28;20207;-89
2021/07/29 03:48:01;;;;;;;4.78;3.58;;;19.40;83.70;;;;;;5044703;28;20238;-90
2021/07/29 03:50:28;;;;;;;4.82;4.32;;;19.40;83.80;;;;;;5056625;28;20173;-89
2021/07/29 03:52:54;;;;;;;4.43;3.92;;;19.40;83.60;;;;;;5056408;28;20188;-90
2021/07/29 03:55:20;;;;;;;8.40;4.97;;;19.40;83.80;;;;;;5054656;28;20259;-89
2021/07/29 03:57:46;;;;;;;4.68;4.30;;;19.30;84.40;;;;;;5043344;28;20684;-89
2021/07/29 04:00:13;;;;;;;5.57;4.63;;;19.30;84.70;;;;;;5038134;28;20259;-89
2021/07/29 04:02:39;;;;;;;4.90;4.50;;;19.20;85.50;;;;;;5058157;28;20187;-89
2021/07/29 04:05:07;;;;;;;6.07;4.32;;;19.10;85.80;;;;;;5054576;28;20258;-90
2021/07/29 04:07:36;;;;;;;5.10;4.70;;;19.10;86.30;;;;;;5039306;28;20221;-90
2021/07/29 04:10:03;;;;;;;4.68;4.28;;;19.20;85.80;;;;;;5055943;28;20290;-89
2021/07/29 04:12:30;;;;;;;4.70;4.20;;;19.10;86.30;;;;;;5055941;28;20201;-90
2021/07/29 04:14:56;;;;;;;4.38;4.07;;;19.20;86.20;;;;;;5041783;28;20183;-90
2021/07/29 04:17:21;;;;;;;5.50;4.70;;;19.30;86.20;;;;;;5058369;28;20235;-90
2021/07/29 04:19:47;;;;;;;5.60;4.47;;;19.20;86.30;;;;;;5057098;28;20596;-90
2021/07/29 04:22:13;;;;;;;5.18;4.70;;;19.20;86.80;;;;;;5039908;28;20201;-89
2021/07/29 04:24:39;;;;;;;5.93;4.28;;;19.20;86.60;;;;;;5044720;28;20193;-90
2021/07/29 04:27:05;;;;;;;6.38;3.92;;;19.40;86.10;;;;;;5051885;28;20193;-89
2021/07/29 04:29:32;;;;;;;5.97;4.45;;;19.40;86.20;;;;;;5057510;28;20291;-89
2021/07/29 04:31:58;;;;;;;5.20;4.45;;;19.50;86.00;;;;;;5055953;28;20180;-89
2021/07/29 04:34:24;;;;;;;4.32;3.92;;;19.40;86.00;;;;;;5056087;28;20193;-89
2021/07/29 04:36:52;;;;;;;4.60;4.20;;;19.50;85.90;;;;;;5053756;28;20556;-89
2021/07/29 04:39:18;;;;;;;6.45;3.97;;;19.50;85.60;;;;;;5059949;28;20204;-90
2021/07/29 04:41:44;;;;;;;4.80;4.35;;;19.50;85.60;;;;;;5056246;28;20242;-89
2021/07/29 04:44:12;;;;;;;5.75;4.88;;;19.60;85.40;;;;;;5056560;28;20640;-89
2021/07/29 04:46:39;;;;;;;5.55;4.47;;;19.50;85.50;;;;;;5047355;28;20878;-89
2021/07/29 04:49:06;;;;;;;5.22;4.13;;;19.50;85.80;;;;;;5055346;28;20213;-90
2021/07/29 04:51:33;;;;;;;6.97;4.72;;;19.60;85.60;;;;;;5051953;28;20199;-89
2021/07/29 04:53:59;;;;;;;9.20;4.28;;;19.60;85.70;;;;;;5057783;28;20189;-89
2021/07/29 04:56:25;;;;;;;4.95;4.38;;;19.60;85.70;;;;;;5043975;28;20261;-90
2021/07/29 04:58:51;;;;;;;4.93;4.53;;;19.50;85.30;;;;;;5048787;28;20676;-89
2021/07/29 05:01:17;;;;;;;5.15;4.70;;;19.30;86.50;;;;;;5047366;28;20188;-90
2021/07/29 05:03:43;;;;;;;7.82;4.82;;;19.30;86.80;;;;;;5059537;28;20238;-89
2021/07/29 05:06:09;;;;;;;8.75;4.40;;;19.40;86.50;;;;;;5053409;28;20227;-90
2021/07/29 05:08:35;;;;;;;6.90;4.45;;;19.40;86.50;;;;;;5056211;28;20219;-88
2021/07/29 05:11:05;;;;;;;5.10;4.60;;;19.40;86.60;;;;;;5041023;28;20189;-90
2021/07/29 05:13:31;;;;;;;5.18;4.45;;;19.40;86.30;;;;;;5059362;28;20195;-89
2021/07/29 05:15:58;;;;;;;4.82;4.00;;;19.50;86.70;;;;;;5019029;28;20196;-89
2021/07/29 05:18:23;;;;;;;4.70;4.30;;;19.40;86.50;;;;;;5042166;28;20218;-88
2021/07/29 05:20:49;;;;;;;5.63;4.40;;;19.40;86.80;;;;;;5060680;28;20227;-90
2021/07/29 05:23:15;;;;;;;5.57;4.45;;;19.40;86.80;;;;;;5058971;28;20234;-89
2021/07/29 05:25:42;;;;;;;4.95;4.55;;;19.40;86.90;;;;;;5059480;28;20212;-89
2021/07/29 05:28:08;;;;;;;6.38;4.97;;;19.50;86.90;;;;;;5060507;28;20264;-89
2021/07/29 05:30:36;;;;;;;5.10;4.63;;;19.50;85.90;;;;;;5049527;28;20219;-89
2021/07/29 05:33:04;;;;;;;7.43;5.03;;;19.50;86.40;;;;;;5050769;28;20181;-90
2021/07/29 05:35:30;;;;;;;6.30;4.55;;;19.50;86.40;;;;;;5060423;28;20203;-89
2021/07/29 05:37:56;;;;;;;5.40;4.90;;;19.40;86.50;;;;;;5058724;28;20208;-89
2021/07/29 05:40:22;;;;;;;5.25;4.75;;;19.60;86.40;;;;;;5055796;28;20894;-90
2021/07/29 05:42:48;;;;;;;5.43;4.85;;;19.60;86.20;;;;;;5060138;28;20203;-90
2021/07/29 05:45:13;;;;;;;7.63;5.20;;;19.60;86.50;;;;;;5059239;28;20191;-90
2021/07/29 05:47:39;;;;;;;5.43;4.70;;;19.60;86.20;;;;;;5058740;28;20263;-89
2021/07/29 05:50:05;;;;;;;5.65;5.15;;;19.60;86.10;;;;;;5060042;28;20219;-89
2021/07/29 05:52:31;;;;;;;6.00;4.70;;;19.60;85.90;;;;;;5059462;28;20188;-89
2021/07/29 05:54:57;;;;;;;5.05;4.65;;;19.60;86.70;;;;;;5024785;28;20211;-89
2021/07/29 05:57:23;;;;;;;6.07;5.50;;;19.50;86.70;;;;;;5022651;28;22050;-89
2021/07/29 05:59:48;;;;;;;5.55;5.00;;;19.40;86.90;;;;;;5024430;28;20196;-90
2021/07/29 06:02:14;;;;;;;5.60;5.03;;;19.40;86.00;;;;;;5048923;28;20196;-89
2021/07/29 06:04:40;;;;;;;5.63;4.72;;;19.20;86.40;;;;;;5040918;28;20196;-89
2021/07/29 06:07:06;;;;;;;5.53;5.00;;;19.20;86.80;;;;;;5044399;28;20601;-89
2021/07/29 06:09:31;;;;;;;5.03;4.63;;;19.10;87.20;;;;;;5032818;28;20875;-89
2021/07/29 06:11:57;;;;;;;5.45;4.97;;;19.30;85.40;;;;;;5048218;28;20191;-90
2021/07/29 06:14:23;;;;;;;5.07;4.68;;;19.20;86.30;;;;;;5050793;28;20193;-90
2021/07/29 06:16:50;;;;;;;6.70;4.90;;;19.40;85.80;;;;;;5052766;28;20211;-90
2021/07/29 06:19:28;;;;;;;6.03;5.25;;;19.40;85.60;;;;;;5051746;28;20212;-89
2021/07/29 06:21:54;;;;;;;5.40;4.90;;;19.20;84.00;;;;;;5051991;28;20200;-90
2021/07/29 06:24:20;;;;;;;5.50;5.00;;;19.40;85.20;;;;;;5052356;28;20287;-89
2021/07/29 06:26:45;;;;;;;4.38;3.90;;;19.50;83.90;;;;;;5054483;28;20360;-89
2021/07/29 06:29:11;;;;;;;4.68;3.83;;;19.50;83.70;;;;;;5038741;28;20223;-89
2021/07/29 06:31:37;;;;;;;4.45;4.05;;;19.60;81.80;;;;;;5053926;28;20220;-90
2021/07/29 06:34:02;;;;;;;5.88;4.38;;;19.60;79.60;;;;;;5053541;28;20196;-89
2021/07/29 06:36:28;;;;;;;4.10;3.80;;;19.60;78.70;;;;;;5053766;28;20199;-89
2021/07/29 06:38:54;;;;;;;6.05;4.00;;;19.60;79.40;;;;;;5053548;28;20204;-90
2021/07/29 06:41:20;;;;;;;4.35;3.97;;;19.70;78.00;;;;;;5055003;28;20212;-90
2021/07/29 06:43:45;;;;;;;3.92;3.60;;;19.70;77.70;;;;;;5052341;28;20569;-90
2021/07/29 06:46:11;;;;;;;5.95;3.72;;;19.80;75.90;;;;;;5053360;28;20189;-89
2021/07/29 06:48:37;;;;;;;3.90;3.60;;;19.80;76.10;;;;;;5056612;28;20277;-90
2021/07/29 06:51:04;;;;;;;4.80;3.67;;;19.80;74.20;;;;;;5052436;28;20192;-90
2021/07/29 06:53:31;;;;;;;4.22;3.70;;;19.70;73.70;;;;;;5057446;28;20199;-90
2021/07/29 06:55:59;;;;;;;7.32;3.72;;;19.80;74.20;;;;;;5055068;28;20191;-89
2021/07/29 06:58:25;;;;;;;3.85;3.53;;;19.80;74.00;;;;;;5032832;28;20219;-90
2021/07/29 07:00:50;;;;;;;5.38;4.00;;;19.90;74.90;;;;;;5055104;28;20203;-90
2021/07/29 07:03:16;;;;;;;5.03;3.70;;;20.00;71.80;;;;;;5048956;28;20644;-90
2021/07/29 07:05:45;;;;;;;3.97;3.47;;;20.10;72.80;;;;;;5047306;28;20196;-90
2021/07/29 07:08:11;;;;;;;3.80;3.45;;;20.10;72.30;;;;;;5053933;28;20255;-91
2021/07/29 07:10:37;;;;;;;4.40;3.67;;;20.00;71.40;;;;;;5052960;28;20184;-91
2021/07/29 07:13:03;;;;;;;4.90;3.65;;;19.90;70.10;;;;;;5052532;28;20194;-90
2021/07/29 07:15:29;;;;;;;4.85;3.47;;;19.90;70.20;;;;;;5030422;28;20190;-90
2021/07/29 07:17:55;;;;;;;5.97;3.72;;;19.90;71.00;;;;;;5046992;28;20220;-90
2021/07/29 07:20:23;;;;;;;3.45;3.15;;;20.00;71.70;;;;;;5053517;28;20302;-91
2021/07/29 07:22:49;;;;;;;3.53;3.22;;;20.10;70.30;;;;;;5051185;28;20246;-89
2021/07/29 07:25:15;;;;;;;3.70;3.30;;;20.20;71.30;;;;;;5054209;28;20344;-89
2021/07/29 07:27:41;;;;;;;3.85;3.53;;;20.40;70.10;;;;;;5050526;28;20228;-89
2021/07/29 07:30:07;;;;;;;4.22;3.40;;;20.50;69.10;;;;;;5052103;28;20223;-89
2021/07/29 07:32:32;;;;;;;3.70;3.40;;;20.60;67.90;;;;;;5030808;28;20231;-90
2021/07/29 07:34:58;;;;;;;4.05;3.45;;;20.80;68.60;;;;;;5037548;28;20188;-89
2021/07/29 07:37:24;;;;;;;3.67;3.38;;;20.90;66.30;;;;;;5027104;28;20207;-89
2021/07/29 07:39:50;;;;;;;5.07;3.40;;;20.80;63.40;;;;;;5032412;28;20227;-90
2021/07/29 07:42:16;;;;;;;5.95;3.75;;;20.80;65.00;;;;;;5050014;28;21332;-89
2021/07/29 07:44:42;;;;;;;5.30;3.63;;;20.90;65.90;;;;;;5025299;28;20653;-89
2021/07/29 07:47:07;;;;;;;4.75;3.08;;;21.00;63.90;;;;;;5032396;28;20258;-89
2021/07/29 07:49:33;;;;;;;4.55;3.72;;;21.00;63.80;;;;;;5044684;28;20219;-89
2021/07/29 07:52:00;;;;;;;5.88;3.65;;;20.90;65.40;;;;;;5050046;28;20561;-89
2021/07/29 07:54:26;;;;;;;3.72;3.42;;;21.00;65.20;;;;;;5032560;28;20219;-89
2021/07/29 07:56:51;;;;;;;4.40;3.72;;;21.10;65.60;;;;;;5047054;28;20775;-90
2021/07/29 07:59:17;;;;;;;4.32;3.92;;;21.20;66.40;;;;;;5049010;28;20272;-89
2021/07/29 08:01:44;;;;;;;4.18;3.42;;;21.00;65.40;;;;;;5042277;28;20196;-89
2021/07/29 08:04:10;;;;;;;6.80;3.30;;;21.10;61.60;;;;;;5051715;28;20188;-90
2021/07/29 08:06:37;;;;;;;4.07;3.67;;;21.10;62.90;;;;;;5048618;28;20200;-89
2021/07/29 08:09:05;;;;;;;6.50;3.63;;;21.20;64.60;;;;;;5028172;28;20216;-90
2021/07/29 08:11:31;;;;;;;3.90;3.50;;;21.40;61.80;;;;;;5052736;28;20213;-89
2021/07/29 08:13:57;;;;;;;5.07;3.22;;;21.30;62.40;;;;;;5029367;28;20193;-90
2021/07/29 08:16:23;;;;;;;3.33;3.10;;;21.40;60.70;;;;;;5047437;28;20176;-90
2021/07/29 08:18:50;;;;;;;3.53;3.20;;;21.40;62.30;;;;;;5050036;28;20236;-89
2021/07/29 08:21:16;;;;;;;3.58;3.20;;;21.30;62.50;;;;;;5030824;28;20368;-90
2021/07/29 08:23:42;;;;;;;5.07;3.50;;;21.50;62.00;;;;;;5046096;28;20682;-91
2021/07/29 08:26:10;;;;;;;3.80;3.45;;;21.60;61.20;;;;;;5030911;28;20203;-89
2021/07/29 08:28:40;;;;;;;3.78;3.47;;;21.70;60.40;;;;;;5042369;28;20216;-90
2021/07/29 08:31:10;;;;;;;6.45;3.35;;;21.60;60.90;;;;;;5048964;28;20185;-89
2021/07/29 08:33:36;;;;;;;4.80;3.60;;;21.70;63.20;;;;;;5050317;28;20195;-89
2021/07/29 08:36:02;;;;;;;4.70;3.85;;;21.70;62.70;;;;;;5038402;28;20251;-89
2021/07/29 08:38:28;;;;;;;3.80;3.40;;;22.00;60.90;;;;;;5048207;28;20211;-90
2021/07/29 08:40:55;;;;;;;3.97;3.67;;;21.90;62.80;;;;;;5049502;28;20198;-90
2021/07/29 08:43:22;;;;;;;4.18;3.78;;;22.20;59.50;;;;;;5051497;28;20211;-91
2021/07/29 08:45:51;;;;;;;4.93;4.07;;;22.20;58.00;;;;;;5038034;28;20200;-90
2021/07/29 08:48:24;;;;;;;7.15;4.07;;;22.30;58.00;;;;;;5049854;28;20218;-89
2021/07/29 08:50:50;;;;;;;4.20;3.90;;;22.30;58.00;;;;;;5049349;28;20176;-90
2021/07/29 08:53:16;;;;;;;5.20;3.60;;;22.50;55.60;;;;;;5049756;28;20199;-90
2021/07/29 08:55:41;;;;;;;4.80;3.72;;;22.60;54.70;;;;;;5052663;28;20181;-90
2021/07/29 08:58:08;;;;;;;4.10;3.70;;;22.60;52.70;;;;;;5029923;28;20238;-91
2021/07/29 09:00:34;;;;;;;3.97;3.63;;;22.50;54.30;;;;;;5026796;28;20183;-91
2021/07/29 09:03:19;;;;;;;4.65;4.00;;;22.40;54.90;;;;;;5048598;28;20195;-90
2021/07/29 09:05:59;;;;;;;4.00;3.60;;;22.40;53.60;;;;;;5053518;28;20191;-90
2021/07/29 09:08:25;;;;;;;7.65;4.20;;;22.50;54.50;;;;;;5048381;28;20226;-90
2021/07/29 09:10:51;;;;;;;3.97;3.58;;;22.50;54.40;;;;;;5051879;28;20207;-90
2021/07/29 09:13:18;;;;;;;4.10;3.80;;;22.30;56.10;;;;;;5047493;28;20194;-90
2021/07/29 09:15:45;;;;;;;4.85;3.85;;;21.90;56.40;;;;;;5044998;28;20214;-90
2021/07/29 09:18:18;;;;;;;7.30;4.20;;;22.10;55.40;;;;;;5046084;28;20207;-90
2021/07/29 09:20:44;;;;;;;3.97;3.63;;;22.40;56.30;;;;;;5053935;28;20579;-90
2021/07/29 09:23:21;;;;;;;4.63;3.58;;;22.70;57.20;;;;;;5054611;28;21142;-90
2021/07/29 09:26:00;;;;;;;5.22;3.90;;;23.20;55.70;;;;;;5048020;28;20191;-89
2021/07/29 09:28:37;;;;;;;4.45;3.63;;;23.30;54.10;;;;;;5047962;28;20666;-90
2021/07/29 09:31:19;;;;;;;4.15;3.83;;;23.20;55.40;;;;;;5050923;28;20196;-89
2021/07/29 09:33:59;;;;;;;4.47;3.88;;;23.20;53.00;;;;;;5048987;28;20242;-89
2021/07/29 09:36:25;;;;;;;5.20;3.65;;;23.10;53.90;;;;;;5051892;28;20672;-90
2021/07/29 09:38:51;;;;;;;3.75;3.45;;;23.10;52.10;;;;;;5047190;28;20222;-90
2021/07/29 09:41:27;;;;;;;4.35;4.03;;;23.30;53.00;;;;;;5049399;28;20259;-89
2021/07/29 09:43:54;;;;;;;3.90;3.47;;;23.30;50.60;;;;;;5045239;28;20246;-90
2021/07/29 09:46:22;;;;;;;4.05;3.17;;;23.20;51.20;;;;;;5050068;28;20192;-90
2021/07/29 09:48:49;;;;;;;3.97;3.67;;;23.00;52.20;;;;;;5048997;28;20278;-90
2021/07/29 09:51:17;;;;;;;4.95;3.72;;;23.00;51.40;;;;;;5047793;28;20192;-90
2021/07/29 09:53:46;;;;;;;3.80;3.50;;;23.00;50.60;;;;;;5043792;28;20196;-90
2021/07/29 09:56:14;;;;;;;3.65;3.35;;;23.00;51.90;;;;;;5048089;28;20188;-90
2021/07/29 09:58:41;;;;;;;5.10;3.20;;;23.30;52.00;;;;;;5050735;28;20215;-89
2021/07/29 10:01:07;;;;;;;4.18;3.72;;;23.40;50.90;;;;;;5043656;28;20696;-89
2021/07/29 10:03:35;;;;;;;4.68;3.70;;;23.70;51.30;;;;;;5045045;28;20235;-90
2021/07/29 10:06:13;;;;;;;4.40;3.55;;;23.90;51.40;;;;;;5048729;28;20349;-90
2021/07/29 10:08:42;;;;;;;3.88;3.58;;;24.00;52.50;;;;;;5050322;28;20227;-90
2021/07/29 10:11:13;;;;;;;4.72;3.70;;;23.50;50.50;;;;;;5046645;28;20663;-89
2021/07/29 10:13:40;;;;;;;5.35;3.88;;;23.40;51.60;;;;;;5048007;28;20292;-90
2021/07/29 10:16:08;;;;;;;4.20;3.80;;;23.70;51.50;;;;;;5041169;28;20902;-89
2021/07/29 10:18:52;;;;;;;4.60;4.20;;;23.90;52.60;;;;;;5026246;28;20303;-89
2021/07/29 10:21:29;;;;;;;4.97;3.80;;;24.20;49.80;;;;;;5043845;28;20189;-90
2021/07/29 10:23:57;;;;;;;5.28;4.22;;;24.10;50.70;;;;;;5045521;28;20231;-90
2021/07/29 10:26:23;;;;;;;4.80;4.07;;;24.00;51.60;;;;;;5030585;28;20192;-89
2021/07/29 10:28:49;;;;;;;4.25;3.85;;;23.50;52.20;;;;;;5044202;28;20204;-89
2021/07/29 10:31:16;;;;;;;4.35;3.90;;;23.30;50.80;;;;;;5046142;28;20185;-89
2021/07/29 10:33:44;;;;;;;5.20;4.18;;;23.20;52.50;;;;;;5044846;28;20274;-89
2021/07/29 10:36:46;;;;;;;4.38;3.85;;;23.40;50.30;;;;;;5026972;28;20200;-89
2021/07/29 10:39:13;;;;;;;4.85;4.40;;;23.30;53.90;;;;;;5033725;28;20215;-90
2021/07/29 10:41:42;;;;;;;4.65;3.80;;;23.70;52.10;;;;;;5029822;28;20179;-90
2021/07/29 10:44:10;;;;;;;4.32;3.92;;;24.10;51.10;;;;;;5049128;28;20184;-90
2021/07/29 10:46:54;;;;;;;4.20;3.90;;;24.10;49.70;;;;;;5040820;28;20202;-89
2021/07/29 10:49:20;;;;;;;3.90;3.60;;;23.70;49.00;;;;;;5037639;28;20291;-90
2021/07/29 10:52:04;;;;;;;4.53;4.13;;;24.20;51.90;;;;;;5039301;28;20197;-91
2021/07/29 10:54:30;;;;;;;6.43;4.25;;;24.40;50.60;;;;;;5042949;28;20275;-90
2021/07/29 10:56:59;;;;;;;4.07;3.78;;;24.20;47.50;;;;;;5048160;28;20567;-91
2021/07/29 10:59:25;;;;;;;4.70;4.05;;;24.40;49.50;;;;;;5053035;28;20193;-90
2021/07/29 11:01:52;;;;;;;4.05;3.53;;;24.60;48.10;;;;;;5038287;28;20197;-90
2021/07/29 11:04:18;;;;;;;4.03;3.70;;;24.60;47.40;;;;;;5051864;28;20188;-90
2021/07/29 11:06:43;;;;;;;4.35;3.85;;;24.90;48.30;;;;;;5050300;28;20204;-90
2021/07/29 11:09:10;;;;;;;4.53;3.67;;;25.20;46.50;;;;;;5047509;28;20224;-90
2021/07/29 11:11:43;;;;;;;6.13;3.95;;;25.40;46.40;;;;;;5035900;28;20263;-90
2021/07/29 11:14:10;;;;;;;4.40;4.00;;;25.10;47.60;;;;;;5030109;28;20208;-90
2021/07/29 11:16:37;;;;;;;3.75;3.45;;;25.20;45.60;;;;;;5025318;28;20205;-90
2021/07/29 11:19:04;;;;;;;4.35;3.95;;;25.40;46.30;;;;;;5053879;28;20223;-88
2021/07/29 11:21:31;;;;;;;4.65;4.25;;;25.50;47.30;;;;;;5049936;28;20193;-90
2021/07/29 11:23:57;;;;;;;4.22;3.75;;;25.50;45.80;;;;;;5053349;28;20196;-90
2021/07/29 11:26:23;;;;;;;4.72;3.85;;;25.20;46.80;;;;;;5050928;28;20231;-90
2021/07/29 11:29:10;;;;;;;4.00;3.63;;;25.40;45.00;;;;;;5052846;28;20273;-90
2021/07/29 11:31:38;;;;;;;4.30;3.95;;;25.50;44.20;;;;;;5047047;28;20188;-90
2021/07/29 11:34:05;;;;;;;4.00;3.65;;;25.70;45.20;;;;;;5048826;28;20181;-91
2021/07/29 11:36:32;;;;;;;4.20;3.90;;;26.10;45.20;;;;;;5049503;28;20676;-90
2021/07/29 11:39:00;;;;;;;4.68;3.85;;;26.20;42.60;;;;;;5053229;28;20339;-90
2021/07/29 11:41:26;;;;;;;4.47;4.07;;;26.00;43.90;;;;;;5031757;28;20211;-91
2021/07/29 11:43:57;;;;;;;3.90;3.58;;;25.90;43.40;;;;;;5029436;28;20584;-90
2021/07/29 11:46:23;;;;;;;6.35;4.10;;;25.90;46.30;;;;;;5048387;28;20571;-89
2021/07/29 11:49:01;;;;;;;5.63;3.88;;;26.30;41.90;;;;;;5030273;28;20240;-89
2021/07/29 11:51:27;;;;;;;4.63;4.07;;;26.40;42.30;;;;;;5051535;28;20252;-89
2021/07/29 11:53:53;;;;;;;4.30;4.00;;;26.60;41.80;;;;;;5048173;28;20213;-90
2021/07/29 11:56:19;;;;;;;3.78;3.47;;;26.80;43.20;;;;;;5046885;28;20630;-90
2021/07/29 11:58:57;;;;;;;6.43;4.40;;;26.90;43.70;;;;;;5046965;28;20299;-90
2021/07/29 12:01:23;;;;;;;4.90;3.72;;;26.60;43.60;;;;;;5032646;28;20196;-90
2021/07/29 12:03:51;;;;;;;6.40;3.55;;;26.40;45.10;;;;;;5056074;28;20188;-89
2021/07/29 12:06:17;;;;;;;4.47;3.60;;;26.10;46.80;;;;;;5051733;28;20201;-89
2021/07/29 12:08:46;;;;;;;3.45;3.15;;;26.20;44.60;;;;;;5049149;28;20208;-90
2021/07/29 12:11:15;;;;;;;4.25;3.85;;;26.30;45.40;;;;;;5037890;28;20569;-90
2021/07/29 12:13:43;;;;;;;4.70;3.80;;;26.60;42.60;;;;;;5016598;28;20197;-90
2021/07/29 12:16:09;;;;;;;3.92;3.63;;;26.50;41.40;;;;;;5044861;28;20180;-89
2021/07/29 12:18:35;;;;;;;6.38;4.00;;;26.70;43.10;;;;;;5047473;28;20213;-89
2021/07/29 12:21:02;;;;;;;4.53;3.88;;;27.10;42.50;;;;;;5048324;28;20286;-90
2021/07/29 12:23:28;;;;;;;5.60;4.03;;;27.30;40.50;;;;;;5045391;28;20222;-89
2021/07/29 12:25:56;;;;;;;4.13;3.47;;;27.00;41.10;;;;;;5031754;28;20203;-90
2021/07/29 12:28:45;;;;;;;6.80;4.20;;;26.50;41.90;;;;;;5053885;28;20980;-89
2021/07/29 12:31:22;;;;;;;4.47;3.70;;;26.40;42.30;;;;;;5047700;28;20193;-89
2021/07/29 12:33:59;;;;;;;4.45;3.40;;;26.50;42.40;;;;;;5046373;28;20187;-89
2021/07/29 12:36:44;;;;;;;4.13;3.72;;;26.90;41.10;;;;;;5047726;28;20200;-88
2021/07/29 12:39:11;;;;;;;3.97;3.58;;;27.30;41.40;;;;;;5049214;28;20223;-89
2021/07/29 12:41:40;;;;;;;4.30;3.85;;;27.80;39.90;;;;;;5045334;28;20215;-89
2021/07/29 12:44:18;;;;;;;4.10;3.70;;;27.80;38.00;;;;;;5043931;28;20180;-89
2021/07/29 12:46:45;;;;;;;3.90;3.58;;;27.60;40.70;;;;;;5032704;28;20644;-89
2021/07/29 12:49:13;;;;;;;4.38;3.97;;;27.50;39.90;;;;;;5048847;28;20904;-89
2021/07/29 12:51:49;;;;;;;4.80;3.70;;;27.80;39.30;;;;;;5050254;28;20200;-89